Terminal Aerodrome Forecast
Issued by NWS Memphis, TN

Home | Current Version | Previous Version | Text Only | Print | Product List | Glossary On
Versions: 1 2 3 4 5 6 7 8 9 10 11 12 13 14 15 16 17
000
FTUS44 KMEG 280221 AAA
TAFJBR
TAF AMD
KJBR 280221Z 2802/2824 17010KT P6SM VCSH SCT035 OVC060
      TEMPO 2802/2805 6SM -SHRA BKN035
     FM280500 18010G16KT P6SM VCTS SCT008CB OVC015 WS020/22045KT
      TEMPO 2809/2813 4SM TSRA BR BKN008CB
     FM281800 19013G20KT P6SM BKN020 OVC035
     FM282100 20016G24KT P6SM BKN035=

USA.gov is the U.S. government's official web portal to all federal, state and local government web resources and services.